sensor_id;sensor_type;location;lat;lon;timestamp;temperature;humidity
14099;DHT22;7126;48.458;7.930;2022-12-15T00:01:02;1.40;99.90
14099;DHT22;7126;48.458;7.930;2022-12-15T00:03:46;1.40;99.90
14099;DHT22;7126;48.458;7.930;2022-12-15T00:06:31;1.40;99.90
14099;DHT22;7126;48.458;7.930;2022-12-15T00:09:15;1.40;99.90
14099;DHT22;7126;48.458;7.930;2022-12-15T00:11:59;1.40;99.90
14099;DHT22;7126;48.458;7.930;2022-12-15T00:14:43;1.30;99.90
14099;DHT22;7126;48.458;7.930;2022-12-15T00:17:27;1.40;99.90
14099;DHT22;7126;48.458;7.930;2022-12-15T00:20:11;1.40;99.90
14099;DHT22;7126;48.458;7.930;2022-12-15T00:22:56;1.40;99.90
14099;DHT22;7126;48.458;7.930;2022-12-15T00:25:39;1.40;99.90
14099;DHT22;7126;48.458;7.930;2022-12-15T00:28:23;1.40;99.90
14099;DHT22;7126;48.458;7.930;2022-12-15T00:31:08;1.40;99.90
14099;DHT22;7126;48.458;7.930;2022-12-15T00:33:52;1.30;99.90
14099;DHT22;7126;48.458;7.930;2022-12-15T00:36:36;1.30;99.90
14099;DHT22;7126;48.458;7.930;2022-12-15T00:39:20;1.30;99.90
14099;DHT22;7126;48.458;7.930;2022-12-15T00:41:45;1.30;99.90
14099;DHT22;7126;48.458;7.930;2022-12-15T00:44:11;1.30;99.90
14099;DHT22;7126;48.458;7.930;2022-12-15T00:46:36;1.20;99.90
14099;DHT22;7126;48.458;7.930;2022-12-15T00:49:24;1.30;99.90
14099;DHT22;7126;48.458;7.930;2022-12-15T00:52:09;1.30;99.90
14099;DHT22;7126;48.458;7.930;2022-12-15T00:54:54;1.30;99.90
14099;DHT22;7126;48.458;7.930;2022-12-15T00:57:38;1.30;99.90
14099;DHT22;7126;48.458;7.930;2022-12-15T01:00:22;1.20;99.90
14099;DHT22;7126;48.458;7.930;2022-12-15T01:03:18;1.20;99.90
14099;DHT22;7126;48.458;7.930;2022-12-15T01:06:10;1.20;99.90
14099;DHT22;7126;48.458;7.930;2022-12-15T01:08:55;1.30;99.90
14099;DHT22;7126;48.458;7.930;2022-12-15T01:11:39;1.20;99.90
14099;DHT22;7126;48.458;7.930;2022-12-15T01:14:23;1.20;99.90
14099;DHT22;7126;48.458;7.930;2022-12-15T01:17:07;1.20;99.90
14099;DHT22;7126;48.458;7.930;2022-12-15T01:19:51;1.10;99.90
14099;DHT22;7126;48.458;7.930;2022-12-15T01:22:36;1.10;99.90
14099;DHT22;7126;48.458;7.930;2022-12-15T01:25:02;1.10;99.90
14099;DHT22;7126;48.458;7.930;2022-12-15T01:27:28;1.10;99.90
14099;DHT22;7126;48.458;7.930;2022-12-15T01:29:53;1.00;99.90
14099;DHT22;7126;48.458;7.930;2022-12-15T01:32:19;1.00;99.90
14099;DHT22;7126;48.458;7.930;2022-12-15T01:34:44;1.00;99.90
14099;DHT22;7126;48.458;7.930;2022-12-15T01:37:10;1.00;99.90
14099;DHT22;7126;48.458;7.930;2022-12-15T01:39:35;1.00;99.90
14099;DHT22;7126;48.458;7.930;2022-12-15T01:42:20;1.00;99.90
14099;DHT22;7126;48.458;7.930;2022-12-15T01:44:49;1.00;99.90
14099;DHT22;7126;48.458;7.930;2022-12-15T01:47:16;1.00;99.90
14099;DHT22;7126;48.458;7.930;2022-12-15T01:49:42;1.00;99.90
14099;DHT22;7126;48.458;7.930;2022-12-15T01:52:12;1.00;99.90
14099;DHT22;7126;48.458;7.930;2022-12-15T01:54:43;1.00;99.90
14099;DHT22;7126;48.458;7.930;2022-12-15T01:57:19;1.00;99.90
14099;DHT22;7126;48.458;7.930;2022-12-15T01:59:50;1.00;99.90
14099;DHT22;7126;48.458;7.930;2022-12-15T02:02:18;1.00;99.90
14099;DHT22;7126;48.458;7.930;2022-12-15T02:04:45;1.10;99.90
14099;DHT22;7126;48.458;7.930;2022-12-15T02:07:15;1.00;99.90
14099;DHT22;7126;48.458;7.930;2022-12-15T02:09:45;1.00;99.90
14099;DHT22;7126;48.458;7.930;2022-12-15T02:12:14;1.00;99.90
14099;DHT22;7126;48.458;7.930;2022-12-15T02:15:16;0.90;99.90
14099;DHT22;7126;48.458;7.930;2022-12-15T02:20:32;0.90;99.90
14099;DHT22;7126;48.458;7.930;2022-12-15T02:31:05;0.90;99.90
14099;DHT22;7126;48.458;7.930;2022-12-15T02:33:55;0.90;99.90
14099;DHT22;7126;48.458;7.930;2022-12-15T02:36:31;0.90;99.90
14099;DHT22;7126;48.458;7.930;2022-12-15T02:38:58;0.90;99.90
14099;DHT22;7126;48.458;7.930;2022-12-15T02:41:34;0.90;99.90
14099;DHT22;7126;48.458;7.930;2022-12-15T02:44:04;0.90;99.90
14099;DHT22;7126;48.458;7.930;2022-12-15T02:49:33;0.90;99.90
14099;DHT22;7126;48.458;7.930;2022-12-15T02:58:05;0.80;99.90
14099;DHT22;7126;48.458;7.930;2022-12-15T03:00:37;0.80;99.90
14099;DHT22;7126;48.458;7.930;2022-12-15T03:03:04;0.80;99.90
14099;DHT22;7126;48.458;7.930;2022-12-15T03:05:30;0.80;99.90
14099;DHT22;7126;48.458;7.930;2022-12-15T03:07:56;0.80;99.90
14099;DHT22;7126;48.458;7.930;2022-12-15T03:10:24;0.80;99.90
14099;DHT22;7126;48.458;7.930;2022-12-15T03:12:50;0.80;99.90
14099;DHT22;7126;48.458;7.930;2022-12-15T03:15:16;0.80;99.90
14099;DHT22;7126;48.458;7.930;2022-12-15T03:17:42;0.80;99.90
14099;DHT22;7126;48.458;7.930;2022-12-15T03:20:08;0.80;99.90
14099;DHT22;7126;48.458;7.930;2022-12-15T03:22:35;0.80;99.90
14099;DHT22;7126;48.458;7.930;2022-12-15T03:25:01;0.70;99.90
14099;DHT22;7126;48.458;7.930;2022-12-15T03:27:26;0.70;99.90
14099;DHT22;7126;48.458;7.930;2022-12-15T03:29:52;0.70;99.90
14099;DHT22;7126;48.458;7.930;2022-12-15T03:32:18;0.80;99.90
14099;DHT22;7126;48.458;7.930;2022-12-15T03:34:43;0.80;99.90
14099;DHT22;7126;48.458;7.930;2022-12-15T03:37:09;0.80;99.90
14099;DHT22;7126;48.458;7.930;2022-12-15T03:39:35;0.80;99.90
14099;DHT22;7126;48.458;7.930;2022-12-15T03:42:00;0.70;99.90
14099;DHT22;7126;48.458;7.930;2022-12-15T03:44:26;0.80;99.90
14099;DHT22;7126;48.458;7.930;2022-12-15T03:46:51;0.80;99.90
14099;DHT22;7126;48.458;7.930;2022-12-15T03:49:17;0.70;99.90
14099;DHT22;7126;48.458;7.930;2022-12-15T03:51:42;0.80;99.90
14099;DHT22;7126;48.458;7.930;2022-12-15T03:54:13;0.80;99.90
14099;DHT22;7126;48.458;7.930;2022-12-15T03:56:39;0.70;99.90
14099;DHT22;7126;48.458;7.930;2022-12-15T03:59:05;0.80;99.90
14099;DHT22;7126;48.458;7.930;2022-12-15T04:01:32;0.80;99.90
14099;DHT22;7126;48.458;7.930;2022-12-15T04:03:58;0.80;99.90
14099;DHT22;7126;48.458;7.930;2022-12-15T04:06:24;0.70;99.90
14099;DHT22;7126;48.458;7.930;2022-12-15T04:08:50;0.70;99.90
14099;DHT22;7126;48.458;7.930;2022-12-15T04:11:16;0.70;99.90
14099;DHT22;7126;48.458;7.930;2022-12-15T04:13:42;0.70;99.90
14099;DHT22;7126;48.458;7.930;2022-12-15T04:16:08;0.70;99.90
14099;DHT22;7126;48.458;7.930;2022-12-15T04:18:34;0.70;99.90
14099;DHT22;7126;48.458;7.930;2022-12-15T04:20:59;0.80;99.90
14099;DHT22;7126;48.458;7.930;2022-12-15T04:23:25;0.80;99.90
14099;DHT22;7126;48.458;7.930;2022-12-15T04:25:50;0.70;99.90
14099;DHT22;7126;48.458;7.930;2022-12-15T04:28:35;0.80;99.90
14099;DHT22;7126;48.458;7.930;2022-12-15T04:31:28;0.80;99.90
14099;DHT22;7126;48.458;7.930;2022-12-15T04:34:22;0.80;99.90
14099;DHT22;7126;48.458;7.930;2022-12-15T04:37:10;0.70;99.90
14099;DHT22;7126;48.458;7.930;2022-12-15T04:39:55;0.70;99.90
14099;DHT22;7126;48.458;7.930;2022-12-15T04:42:42;0.60;99.90
14099;DHT22;7126;48.458;7.930;2022-12-15T04:45:28;0.60;99.90
14099;DHT22;7126;48.458;7.930;2022-12-15T04:48:12;0.60;99.90
14099;DHT22;7126;48.458;7.930;2022-12-15T04:50:56;0.60;99.90
14099;DHT22;7126;48.458;7.930;2022-12-15T04:53:42;0.60;99.90
14099;DHT22;7126;48.458;7.930;2022-12-15T04:56:27;0.60;99.90
14099;DHT22;7126;48.458;7.930;2022-12-15T04:59:11;0.60;99.90
14099;DHT22;7126;48.458;7.930;2022-12-15T05:01:55;0.60;99.90
14099;DHT22;7126;48.458;7.930;2022-12-15T05:04:40;0.60;99.90
14099;DHT22;7126;48.458;7.930;2022-12-15T05:07:24;0.60;99.90
14099;DHT22;7126;48.458;7.930;2022-12-15T05:10:09;0.60;99.90
14099;DHT22;7126;48.458;7.930;2022-12-15T05:12:53;0.60;99.90
14099;DHT22;7126;48.458;7.930;2022-12-15T05:15:37;0.60;99.90
14099;DHT22;7126;48.458;7.930;2022-12-15T05:18:21;0.60;99.90
14099;DHT22;7126;48.458;7.930;2022-12-15T05:21:05;0.60;99.90
14099;DHT22;7126;48.458;7.930;2022-12-15T05:23:50;0.60;99.90
14099;DHT22;7126;48.458;7.930;2022-12-15T05:26:34;0.60;99.90
14099;DHT22;7126;48.458;7.930;2022-12-15T05:29:18;0.70;99.90
14099;DHT22;7126;48.458;7.930;2022-12-15T05:32:03;0.70;99.90
14099;DHT22;7126;48.458;7.930;2022-12-15T05:34:30;0.70;99.90
14099;DHT22;7126;48.458;7.930;2022-12-15T05:36:58;0.70;99.90
14099;DHT22;7126;48.458;7.930;2022-12-15T05:39:24;0.60;99.90
14099;DHT22;7126;48.458;7.930;2022-12-15T05:41:50;0.60;99.90
14099;DHT22;7126;48.458;7.930;2022-12-15T05:44:16;0.60;99.90
14099;DHT22;7126;48.458;7.930;2022-12-15T05:46:43;0.60;99.90
14099;DHT22;7126;48.458;7.930;2022-12-15T05:49:11;0.60;99.90
14099;DHT22;7126;48.458;7.930;2022-12-15T05:51:39;0.60;99.90
14099;DHT22;7126;48.458;7.930;2022-12-15T05:54:09;0.60;99.90
14099;DHT22;7126;48.458;7.930;2022-12-15T05:56:35;0.70;99.90
14099;DHT22;7126;48.458;7.930;2022-12-15T05:59:00;0.70;99.90
14099;DHT22;7126;48.458;7.930;2022-12-15T06:01:27;0.70;99.90
14099;DHT22;7126;48.458;7.930;2022-12-15T06:03:52;0.70;99.90
14099;DHT22;7126;48.458;7.930;2022-12-15T06:06:19;0.70;99.90
14099;DHT22;7126;48.458;7.930;2022-12-15T06:08:44;0.70;99.90
14099;DHT22;7126;48.458;7.930;2022-12-15T06:11:16;0.70;99.90
14099;DHT22;7126;48.458;7.930;2022-12-15T06:13:42;0.70;99.90
14099;DHT22;7126;48.458;7.930;2022-12-15T06:16:13;0.70;99.90
14099;DHT22;7126;48.458;7.930;2022-12-15T06:18:42;0.70;99.90
14099;DHT22;7126;48.458;7.930;2022-12-15T06:21:13;0.70;99.90
14099;DHT22;7126;48.458;7.930;2022-12-15T06:23:40;0.70;99.90
14099;DHT22;7126;48.458;7.930;2022-12-15T06:26:13;0.70;99.90
14099;DHT22;7126;48.458;7.930;2022-12-15T06:28:40;0.60;99.90
14099;DHT22;7126;48.458;7.930;2022-12-15T06:31:07;0.70;99.90
14099;DHT22;7126;48.458;7.930;2022-12-15T06:33:34;0.70;99.90
14099;DHT22;7126;48.458;7.930;2022-12-15T06:36:04;0.70;99.90
14099;DHT22;7126;48.458;7.930;2022-12-15T06:38:30;0.60;99.90
14099;DHT22;7126;48.458;7.930;2022-12-15T06:40:57;0.60;99.90
14099;DHT22;7126;48.458;7.930;2022-12-15T06:43:27;0.60;99.90
14099;DHT22;7126;48.458;7.930;2022-12-15T06:46:12;0.60;99.90
14099;DHT22;7126;48.458;7.930;2022-12-15T06:48:37;0.60;99.90
14099;DHT22;7126;48.458;7.930;2022-12-15T06:51:05;0.60;99.90
14099;DHT22;7126;48.458;7.930;2022-12-15T06:53:34;0.70;99.90
14099;DHT22;7126;48.458;7.930;2022-12-15T06:56:01;0.70;99.90
14099;DHT22;7126;48.458;7.930;2022-12-15T06:58:28;0.60;99.90
14099;DHT22;7126;48.458;7.930;2022-12-15T07:00:54;0.60;99.90
14099;DHT22;7126;48.458;7.930;2022-12-15T07:03:20;0.60;99.90
14099;DHT22;7126;48.458;7.930;2022-12-15T07:05:46;0.60;99.90
14099;DHT22;7126;48.458;7.930;2022-12-15T07:08:13;0.60;99.90
14099;DHT22;7126;48.458;7.930;2022-12-15T07:10:41;0.70;99.90
14099;DHT22;7126;48.458;7.930;2022-12-15T07:13:13;0.60;99.90
14099;DHT22;7126;48.458;7.930;2022-12-15T07:15:39;0.70;99.90
14099;DHT22;7126;48.458;7.930;2022-12-15T07:18:04;0.70;99.90
14099;DHT22;7126;48.458;7.930;2022-12-15T07:20:31;0.70;99.90
14099;DHT22;7126;48.458;7.930;2022-12-15T07:22:57;0.70;99.90
14099;DHT22;7126;48.458;7.930;2022-12-15T07:25:23;0.70;99.90
14099;DHT22;7126;48.458;7.930;2022-12-15T07:27:48;0.70;99.90
14099;DHT22;7126;48.458;7.930;2022-12-15T07:30:15;0.70;99.90
14099;DHT22;7126;48.458;7.930;2022-12-15T07:32:42;0.70;99.90
14099;DHT22;7126;48.458;7.930;2022-12-15T07:35:09;0.70;99.90
14099;DHT22;7126;48.458;7.930;2022-12-15T07:37:34;0.70;99.90
14099;DHT22;7126;48.458;7.930;2022-12-15T07:40:01;0.70;99.90
14099;DHT22;7126;48.458;7.930;2022-12-15T07:42:30;0.70;99.90
14099;DHT22;7126;48.458;7.930;2022-12-15T07:44:56;0.60;99.90
14099;DHT22;7126;48.458;7.930;2022-12-15T07:47:22;0.70;99.90
14099;DHT22;7126;48.458;7.930;2022-12-15T07:49:48;0.70;99.90
14099;DHT22;7126;48.458;7.930;2022-12-15T07:52:13;0.70;99.90
14099;DHT22;7126;48.458;7.930;2022-12-15T07:54:39;0.70;99.90
14099;DHT22;7126;48.458;7.930;2022-12-15T07:57:05;0.70;99.90
14099;DHT22;7126;48.458;7.930;2022-12-15T07:59:34;0.80;99.90
14099;DHT22;7126;48.458;7.930;2022-12-15T08:02:00;0.80;99.90
14099;DHT22;7126;48.458;7.930;2022-12-15T08:04:28;0.80;99.90
14099;DHT22;7126;48.458;7.930;2022-12-15T08:06:54;0.80;99.90
14099;DHT22;7126;48.458;7.930;2022-12-15T08:09:19;0.80;99.90
14099;DHT22;7126;48.458;7.930;2022-12-15T08:11:45;0.80;99.90
14099;DHT22;7126;48.458;7.930;2022-12-15T08:14:11;0.90;99.90
14099;DHT22;7126;48.458;7.930;2022-12-15T08:16:37;0.80;99.90
14099;DHT22;7126;48.458;7.930;2022-12-15T08:19:04;0.80;99.90
14099;DHT22;7126;48.458;7.930;2022-12-15T08:21:31;0.80;99.90
14099;DHT22;7126;48.458;7.930;2022-12-15T08:23:57;0.80;99.90
14099;DHT22;7126;48.458;7.930;2022-12-15T08:26:23;0.70;99.90
14099;DHT22;7126;48.458;7.930;2022-12-15T08:28:48;0.80;99.90
14099;DHT22;7126;48.458;7.930;2022-12-15T08:31:17;0.80;99.90
14099;DHT22;7126;48.458;7.930;2022-12-15T08:33:43;0.80;99.90
14099;DHT22;7126;48.458;7.930;2022-12-15T08:36:11;0.80;99.90
14099;DHT22;7126;48.458;7.930;2022-12-15T08:38:39;0.80;99.90
14099;DHT22;7126;48.458;7.930;2022-12-15T08:41:09;0.80;99.90
14099;DHT22;7126;48.458;7.930;2022-12-15T08:43:36;0.90;99.90
14099;DHT22;7126;48.458;7.930;2022-12-15T08:46:02;0.90;99.90
14099;DHT22;7126;48.458;7.930;2022-12-15T08:48:27;0.90;99.90
14099;DHT22;7126;48.458;7.930;2022-12-15T08:50:57;0.90;99.90
14099;DHT22;7126;48.458;7.930;2022-12-15T08:53:24;1.00;99.90
14099;DHT22;7126;48.458;7.930;2022-12-15T08:55:50;1.00;99.90
14099;DHT22;7126;48.458;7.930;2022-12-15T08:58:16;1.10;99.90
14099;DHT22;7126;48.458;7.930;2022-12-15T09:00:42;1.10;99.90
14099;DHT22;7126;48.458;7.930;2022-12-15T09:03:07;1.10;99.90
14099;DHT22;7126;48.458;7.930;2022-12-15T09:05:34;1.10;99.90
14099;DHT22;7126;48.458;7.930;2022-12-15T09:08:00;1.10;99.90
14099;DHT22;7126;48.458;7.930;2022-12-15T09:10:25;1.00;99.90
14099;DHT22;7126;48.458;7.930;2022-12-15T09:12:51;1.10;99.90
14099;DHT22;7126;48.458;7.930;2022-12-15T09:15:17;1.10;99.90
14099;DHT22;7126;48.458;7.930;2022-12-15T09:17:43;1.20;99.90
14099;DHT22;7126;48.458;7.930;2022-12-15T09:20:09;1.20;99.90
14099;DHT22;7126;48.458;7.930;2022-12-15T09:22:35;1.20;99.90
14099;DHT22;7126;48.458;7.930;2022-12-15T09:25:04;1.20;99.90
14099;DHT22;7126;48.458;7.930;2022-12-15T09:27:29;1.20;99.90
14099;DHT22;7126;48.458;7.930;2022-12-15T09:29:56;1.30;99.90
14099;DHT22;7126;48.458;7.930;2022-12-15T09:32:22;1.30;99.90
14099;DHT22;7126;48.458;7.930;2022-12-15T09:34:50;1.30;99.90
14099;DHT22;7126;48.458;7.930;2022-12-15T09:37:15;1.30;99.90
14099;DHT22;7126;48.458;7.930;2022-12-15T09:39:41;1.30;99.90
14099;DHT22;7126;48.458;7.930;2022-12-15T09:42:24;1.30;99.90
14099;DHT22;7126;48.458;7.930;2022-12-15T09:44:58;1.30;99.90
14099;DHT22;7126;48.458;7.930;2022-12-15T09:48:03;1.30;99.90
14099;DHT22;7126;48.458;7.930;2022-12-15T09:50:34;1.40;99.90
14099;DHT22;7126;48.458;7.930;2022-12-15T09:53:02;1.40;99.90
14099;DHT22;7126;48.458;7.930;2022-12-15T09:55:31;1.40;99.90
14099;DHT22;7126;48.458;7.930;2022-12-15T10:01:11;1.50;99.90
14099;DHT22;7126;48.458;7.930;2022-12-15T10:04:05;1.40;99.90
14099;DHT22;7126;48.458;7.930;2022-12-15T10:06:33;1.40;99.90
14099;DHT22;7126;48.458;7.930;2022-12-15T10:09:03;1.40;99.90
14099;DHT22;7126;48.458;7.930;2022-12-15T10:11:45;1.50;99.90
14099;DHT22;7126;48.458;7.930;2022-12-15T10:17:19;1.50;99.90
14099;DHT22;7126;48.458;7.930;2022-12-15T10:22:33;1.50;99.90
14099;DHT22;7126;48.458;7.930;2022-12-15T10:25:15;1.50;99.90
14099;DHT22;7126;48.458;7.930;2022-12-15T10:30:30;1.50;99.90
14099;DHT22;7126;48.458;7.930;2022-12-15T10:35:33;1.60;99.90
14099;DHT22;7126;48.458;7.930;2022-12-15T10:38:02;1.60;99.90
14099;DHT22;7126;48.458;7.930;2022-12-15T10:41:01;1.60;99.90
14099;DHT22;7126;48.458;7.930;2022-12-15T10:43:33;1.70;99.90
14099;DHT22;7126;48.458;7.930;2022-12-15T10:48:31;1.60;99.90
14099;DHT22;7126;48.458;7.930;2022-12-15T10:53:52;1.70;99.90
14099;DHT22;7126;48.458;7.930;2022-12-15T10:56:24;1.70;99.90
14099;DHT22;7126;48.458;7.930;2022-12-15T10:58:52;1.80;99.90
14099;DHT22;7126;48.458;7.930;2022-12-15T11:01:23;1.70;99.90
14099;DHT22;7126;48.458;7.930;2022-12-15T11:03:49;1.70;99.90
14099;DHT22;7126;48.458;7.930;2022-12-15T11:06:21;1.70;99.90
14099;DHT22;7126;48.458;7.930;2022-12-15T11:08:53;1.70;99.90
14099;DHT22;7126;48.458;7.930;2022-12-15T11:11:34;1.70;99.90
14099;DHT22;7126;48.458;7.930;2022-12-15T11:14:27;1.70;99.90
14099;DHT22;7126;48.458;7.930;2022-12-15T11:16:55;1.70;99.90
14099;DHT22;7126;48.458;7.930;2022-12-15T11:19:43;1.80;99.90
14099;DHT22;7126;48.458;7.930;2022-12-15T11:25:21;1.70;99.90
14099;DHT22;7126;48.458;7.930;2022-12-15T11:27:49;1.70;99.90
14099;DHT22;7126;48.458;7.930;2022-12-15T11:30:32;1.70;99.90
14099;DHT22;7126;48.458;7.930;2022-12-15T11:32:59;1.80;99.90
14099;DHT22;7126;48.458;7.930;2022-12-15T11:46:38;1.90;99.90
14099;DHT22;7126;48.458;7.930;2022-12-15T11:49:32;2.00;99.90
14099;DHT22;7126;48.458;7.930;2022-12-15T11:52:02;2.00;99.90
14099;DHT22;7126;48.458;7.930;2022-12-15T11:54:46;2.00;99.90
14099;DHT22;7126;48.458;7.930;2022-12-15T12:07:54;2.10;99.90
14099;DHT22;7126;48.458;7.930;2022-12-15T12:11:09;2.00;99.90
14099;DHT22;7126;48.458;7.930;2022-12-15T12:17:11;2.00;99.90
14099;DHT22;7126;48.458;7.930;2022-12-15T12:19:44;2.00;99.90
14099;DHT22;7126;48.458;7.930;2022-12-15T12:24:49;1.90;99.90
14099;DHT22;7126;48.458;7.930;2022-12-15T12:30:16;1.90;99.90
14099;DHT22;7126;48.458;7.930;2022-12-15T12:38:23;2.00;99.90
14099;DHT22;7126;48.458;7.930;2022-12-15T12:43:41;2.00;99.90
14099;DHT22;7126;48.458;7.930;2022-12-15T12:48:52;2.00;99.90
14099;DHT22;7126;48.458;7.930;2022-12-15T12:53:45;2.10;99.90
14099;DHT22;7126;48.458;7.930;2022-12-15T12:56:37;2.00;99.90
14099;DHT22;7126;48.458;7.930;2022-12-15T13:07:38;2.00;99.90
14099;DHT22;7126;48.458;7.930;2022-12-15T13:18:21;1.90;99.90
14099;DHT22;7126;48.458;7.930;2022-12-15T13:20:49;1.90;99.90
14099;DHT22;7126;48.458;7.930;2022-12-15T13:26:09;1.90;99.90
14099;DHT22;7126;48.458;7.930;2022-12-15T13:41:43;1.90;99.90
14099;DHT22;7126;48.458;7.930;2022-12-15T13:44:42;1.90;99.90
14099;DHT22;7126;48.458;7.930;2022-12-15T13:47:19;1.90;99.90
14099;DHT22;7126;48.458;7.930;2022-12-15T13:49:48;1.90;99.90
14099;DHT22;7126;48.458;7.930;2022-12-15T13:55:01;1.80;99.90
14099;DHT22;7126;48.458;7.930;2022-12-15T13:57:33;1.80;99.90
14099;DHT22;7126;48.458;7.930;2022-12-15T14:00:06;1.80;99.90
14099;DHT22;7126;48.458;7.930;2022-12-15T14:02:42;1.80;99.90
14099;DHT22;7126;48.458;7.930;2022-12-15T14:07:46;1.80;99.90
14099;DHT22;7126;48.458;7.930;2022-12-15T14:10:39;1.90;99.90
14099;DHT22;7126;48.458;7.930;2022-12-15T14:13:21;1.90;99.90
14099;DHT22;7126;48.458;7.930;2022-12-15T14:15:58;1.90;99.90
14099;DHT22;7126;48.458;7.930;2022-12-15T14:20:58;1.90;99.90
14099;DHT22;7126;48.458;7.930;2022-12-15T14:23:26;1.90;99.90
14099;DHT22;7126;48.458;7.930;2022-12-15T14:25:55;1.90;99.90
14099;DHT22;7126;48.458;7.930;2022-12-15T14:28:27;1.90;99.90
14099;DHT22;7126;48.458;7.930;2022-12-15T14:31:00;1.80;99.90
14099;DHT22;7126;48.458;7.930;2022-12-15T14:33:27;1.80;99.90
14099;DHT22;7126;48.458;7.930;2022-12-15T14:35:54;1.80;99.90
14099;DHT22;7126;48.458;7.930;2022-12-15T14:38:29;1.80;99.90
14099;DHT22;7126;48.458;7.930;2022-12-15T14:40:56;1.80;99.90
14099;DHT22;7126;48.458;7.930;2022-12-15T14:43:31;1.80;99.90
14099;DHT22;7126;48.458;7.930;2022-12-15T14:46:10;1.80;99.90
14099;DHT22;7126;48.458;7.930;2022-12-15T14:48:38;1.80;99.90
14099;DHT22;7126;48.458;7.930;2022-12-15T14:51:06;1.80;99.90
14099;DHT22;7126;48.458;7.930;2022-12-15T14:53:35;1.80;99.90
14099;DHT22;7126;48.458;7.930;2022-12-15T14:56:23;1.80;99.90
14099;DHT22;7126;48.458;7.930;2022-12-15T15:01:37;1.90;99.90
14099;DHT22;7126;48.458;7.930;2022-12-15T15:04:52;1.90;99.90
14099;DHT22;7126;48.458;7.930;2022-12-15T15:06:59;1.90;99.90
14099;DHT22;7126;48.458;7.930;2022-12-15T15:09:28;1.90;99.90
14099;DHT22;7126;48.458;7.930;2022-12-15T15:12:06;1.90;99.90
14099;DHT22;7126;48.458;7.930;2022-12-15T15:15:15;1.90;99.90
14099;DHT22;7126;48.458;7.930;2022-12-15T15:17:59;1.80;99.90
14099;DHT22;7126;48.458;7.930;2022-12-15T15:25:36;1.90;99.90
14099;DHT22;7126;48.458;7.930;2022-12-15T15:28:12;1.90;99.90
14099;DHT22;7126;48.458;7.930;2022-12-15T15:30:43;1.90;99.90
14099;DHT22;7126;48.458;7.930;2022-12-15T15:33:09;1.90;99.90
14099;DHT22;7126;48.458;7.930;2022-12-15T15:35:38;1.80;99.90
14099;DHT22;7126;48.458;7.930;2022-12-15T15:38:21;1.80;99.90
14099;DHT22;7126;48.458;7.930;2022-12-15T15:40:55;1.80;99.90
14099;DHT22;7126;48.458;7.930;2022-12-15T15:43:22;1.80;99.90
14099;DHT22;7126;48.458;7.930;2022-12-15T15:45:49;1.80;99.90
14099;DHT22;7126;48.458;7.930;2022-12-15T15:48:22;1.80;99.90
14099;DHT22;7126;48.458;7.930;2022-12-15T15:50:48;1.90;99.90
14099;DHT22;7126;48.458;7.930;2022-12-15T15:53:16;1.90;99.90
14099;DHT22;7126;48.458;7.930;2022-12-15T15:55:43;1.90;99.90
14099;DHT22;7126;48.458;7.930;2022-12-15T15:58:12;1.90;99.90
14099;DHT22;7126;48.458;7.930;2022-12-15T16:00:38;1.90;99.90
14099;DHT22;7126;48.458;7.930;2022-12-15T16:03:05;1.90;99.90
14099;DHT22;7126;48.458;7.930;2022-12-15T16:05:30;1.90;99.90
14099;DHT22;7126;48.458;7.930;2022-12-15T16:08:00;1.80;99.90
14099;DHT22;7126;48.458;7.930;2022-12-15T16:10:26;1.80;99.90
14099;DHT22;7126;48.458;7.930;2022-12-15T16:12:54;1.80;99.90
14099;DHT22;7126;48.458;7.930;2022-12-15T16:15:22;1.70;99.90
14099;DHT22;7126;48.458;7.930;2022-12-15T16:17:50;1.80;99.90
14099;DHT22;7126;48.458;7.930;2022-12-15T16:20:18;1.80;99.90
14099;DHT22;7126;48.458;7.930;2022-12-15T16:22:47;1.80;99.90
14099;DHT22;7126;48.458;7.930;2022-12-15T16:25:25;1.80;99.90
14099;DHT22;7126;48.458;7.930;2022-12-15T16:27:52;1.80;99.90
14099;DHT22;7126;48.458;7.930;2022-12-15T16:30:21;1.80;99.90
14099;DHT22;7126;48.458;7.930;2022-12-15T16:32:48;1.80;99.90
14099;DHT22;7126;48.458;7.930;2022-12-15T16:35:14;1.80;99.90
14099;DHT22;7126;48.458;7.930;2022-12-15T16:37:41;1.80;99.90
14099;DHT22;7126;48.458;7.930;2022-12-15T16:40:19;1.70;99.90
14099;DHT22;7126;48.458;7.930;2022-12-15T16:42:50;1.70;99.90
14099;DHT22;7126;48.458;7.930;2022-12-15T16:45:19;1.70;99.90
14099;DHT22;7126;48.458;7.930;2022-12-15T16:47:45;1.70;99.90
14099;DHT22;7126;48.458;7.930;2022-12-15T16:50:15;1.70;99.90
14099;DHT22;7126;48.458;7.930;2022-12-15T16:52:43;1.70;99.90
14099;DHT22;7126;48.458;7.930;2022-12-15T16:55:24;1.70;99.90
14099;DHT22;7126;48.458;7.930;2022-12-15T16:57:51;1.70;99.90
14099;DHT22;7126;48.458;7.930;2022-12-15T17:00:27;1.70;99.90
14099;DHT22;7126;48.458;7.930;2022-12-15T17:02:54;1.70;99.90
14099;DHT22;7126;48.458;7.930;2022-12-15T17:05:21;1.70;99.90
14099;DHT22;7126;48.458;7.930;2022-12-15T17:07:54;1.60;99.90
14099;DHT22;7126;48.458;7.930;2022-12-15T17:10:23;1.60;99.90
14099;DHT22;7126;48.458;7.930;2022-12-15T17:12:50;1.50;99.90
14099;DHT22;7126;48.458;7.930;2022-12-15T17:15:24;1.50;99.90
14099;DHT22;7126;48.458;7.930;2022-12-15T17:17:51;1.40;99.90
14099;DHT22;7126;48.458;7.930;2022-12-15T17:20:24;1.50;99.90
14099;DHT22;7126;48.458;7.930;2022-12-15T17:23:18;1.50;99.90
14099;DHT22;7126;48.458;7.930;2022-12-15T17:25:47;1.40;99.90
14099;DHT22;7126;48.458;7.930;2022-12-15T17:28:15;1.40;99.90
14099;DHT22;7126;48.458;7.930;2022-12-15T17:30:43;1.40;99.90
14099;DHT22;7126;48.458;7.930;2022-12-15T17:33:20;1.40;99.90
14099;DHT22;7126;48.458;7.930;2022-12-15T17:35:49;1.40;99.90
14099;DHT22;7126;48.458;7.930;2022-12-15T17:38:16;1.40;99.90
14099;DHT22;7126;48.458;7.930;2022-12-15T17:40:43;1.30;99.90
14099;DHT22;7126;48.458;7.930;2022-12-15T17:43:15;1.30;99.90
14099;DHT22;7126;48.458;7.930;2022-12-15T17:45:42;1.30;99.90
14099;DHT22;7126;48.458;7.930;2022-12-15T17:48:08;1.30;99.90
14099;DHT22;7126;48.458;7.930;2022-12-15T17:50:33;1.30;99.90
14099;DHT22;7126;48.458;7.930;2022-12-15T17:53:00;1.20;99.90
14099;DHT22;7126;48.458;7.930;2022-12-15T17:55:28;1.20;99.90
14099;DHT22;7126;48.458;7.930;2022-12-15T17:57:54;1.20;99.90
14099;DHT22;7126;48.458;7.930;2022-12-15T18:00:24;1.20;99.90
14099;DHT22;7126;48.458;7.930;2022-12-15T18:02:51;1.20;99.90
14099;DHT22;7126;48.458;7.930;2022-12-15T18:05:18;1.20;99.90
14099;DHT22;7126;48.458;7.930;2022-12-15T18:07:47;1.10;99.90
14099;DHT22;7126;48.458;7.930;2022-12-15T18:10:27;1.20;99.90
14099;DHT22;7126;48.458;7.930;2022-12-15T18:12:54;1.10;99.90
14099;DHT22;7126;48.458;7.930;2022-12-15T18:15:24;1.10;99.90
14099;DHT22;7126;48.458;7.930;2022-12-15T18:17:49;1.20;99.90
14099;DHT22;7126;48.458;7.930;2022-12-15T18:20:15;1.20;99.90
14099;DHT22;7126;48.458;7.930;2022-12-15T18:22:42;1.20;99.90
14099;DHT22;7126;48.458;7.930;2022-12-15T18:25:20;1.10;99.90
14099;DHT22;7126;48.458;7.930;2022-12-15T18:27:47;1.10;99.90
14099;DHT22;7126;48.458;7.930;2022-12-15T18:30:14;1.20;99.90
14099;DHT22;7126;48.458;7.930;2022-12-15T18:32:40;1.10;99.90
14099;DHT22;7126;48.458;7.930;2022-12-15T18:35:21;1.10;99.90
14099;DHT22;7126;48.458;7.930;2022-12-15T18:37:48;1.10;99.90
14099;DHT22;7126;48.458;7.930;2022-12-15T18:40:20;1.10;99.90
14099;DHT22;7126;48.458;7.930;2022-12-15T18:42:48;1.10;99.90
14099;DHT22;7126;48.458;7.930;2022-12-15T18:45:24;1.00;99.90
14099;DHT22;7126;48.458;7.930;2022-12-15T18:47:51;1.00;99.90